sensor_id;sensor_type;location;lat;lon;timestamp;pressure;altitude;pressure_sealevel;temperature;humidity
11672;BME280;5892;43.412;24.612;2022-07-04T00:02:10;100000.03;;;25.13;77.19
11672;BME280;5892;43.412;24.612;2022-07-04T00:04:37;99990.16;;;24.98;77.46
11672;BME280;5892;43.412;24.612;2022-07-04T00:07:04;100002.59;;;24.97;77.70
11672;BME280;5892;43.412;24.612;2022-07-04T00:09:31;100000.63;;;24.94;77.93
11672;BME280;5892;43.412;24.612;2022-07-04T00:11:59;100015.84;;;24.93;78.44
11672;BME280;5892;43.412;24.612;2022-07-04T00:14:27;99995.88;;;24.83;78.50
11672;BME280;5892;43.412;24.612;2022-07-04T00:16:54;99997.94;;;24.79;78.64
11672;BME280;5892;43.412;24.612;2022-07-04T00:19:21;99991.56;;;24.72;78.67
11672;BME280;5892;43.412;24.612;2022-07-04T00:21:48;100000.00;;;24.72;79.03
11672;BME280;5892;43.412;24.612;2022-07-04T00:24:17;100007.53;;;24.78;79.56
11672;BME280;5892;43.412;24.612;2022-07-04T00:26:44;99994.06;;;24.63;79.35
11672;BME280;5892;43.412;24.612;2022-07-04T00:29:13;100005.22;;;24.70;79.74
11672;BME280;5892;43.412;24.612;2022-07-04T00:31:43;100006.03;;;24.67;80.65
11672;BME280;5892;43.412;24.612;2022-07-04T00:34:10;100004.88;;;24.61;81.78
11672;BME280;5892;43.412;24.612;2022-07-04T00:36:37;100016.47;;;24.63;82.76
11672;BME280;5892;43.412;24.612;2022-07-04T00:39:04;100010.91;;;24.59;82.65
11672;BME280;5892;43.412;24.612;2022-07-04T00:41:32;100008.53;;;24.58;82.65
11672;BME280;5892;43.412;24.612;2022-07-04T00:44:03;100007.75;;;24.54;82.83
11672;BME280;5892;43.412;24.612;2022-07-04T00:46:34;100006.97;;;24.53;83.11
11672;BME280;5892;43.412;24.612;2022-07-04T00:49:03;100014.97;;;24.51;83.15
11672;BME280;5892;43.412;24.612;2022-07-04T00:51:31;100012.56;;;24.53;83.16
11672;BME280;5892;43.412;24.612;2022-07-04T00:53:59;100007.81;;;24.46;83.66
11672;BME280;5892;43.412;24.612;2022-07-04T00:56:26;99958.06;;;24.06;83.86
11672;BME280;5892;43.412;24.612;2022-07-04T00:58:55;100010.69;;;24.36;85.84
11672;BME280;5892;43.412;24.612;2022-07-04T01:01:24;100004.00;;;24.16;86.93
11672;BME280;5892;43.412;24.612;2022-07-04T01:03:53;100005.22;;;24.07;87.72
11672;BME280;5892;43.412;24.612;2022-07-04T01:06:20;100006.06;;;24.04;87.72
11672;BME280;5892;43.412;24.612;2022-07-04T01:08:49;99964.16;;;23.87;87.84
11672;BME280;5892;43.412;24.612;2022-07-04T01:11:16;100004.13;;;23.94;88.47
11672;BME280;5892;43.412;24.612;2022-07-04T01:13:44;100006.25;;;23.62;90.45
11672;BME280;5892;43.412;24.612;2022-07-04T01:16:13;100005.13;;;23.45;92.23
11672;BME280;5892;43.412;24.612;2022-07-04T01:18:41;99932.19;;;22.97;91.56
11672;BME280;5892;43.412;24.612;2022-07-04T01:21:09;99994.75;;;23.46;92.07
11672;BME280;5892;43.412;24.612;2022-07-04T01:23:38;99986.34;;;23.39;92.01
11672;BME280;5892;43.412;24.612;2022-07-04T01:26:06;99990.78;;;23.33;92.35
11672;BME280;5892;43.412;24.612;2022-07-04T01:28:34;99990.38;;;23.27;92.81
11672;BME280;5892;43.412;24.612;2022-07-04T01:31:01;99981.22;;;23.23;93.13
11672;BME280;5892;43.412;24.612;2022-07-04T01:33:30;99985.56;;;23.31;92.64
11672;BME280;5892;43.412;24.612;2022-07-04T01:35:58;99978.81;;;23.29;92.43
11672;BME280;5892;43.412;24.612;2022-07-04T01:38:27;99980.00;;;23.24;92.65
11672;BME280;5892;43.412;24.612;2022-07-04T01:40:54;99942.56;;;22.97;92.48
11672;BME280;5892;43.412;24.612;2022-07-04T01:43:23;99976.44;;;23.16;92.68
11672;BME280;5892;43.412;24.612;2022-07-04T01:45:50;99982.00;;;23.27;91.80
11672;BME280;5892;43.412;24.612;2022-07-04T01:48:17;99964.03;;;23.24;91.51
11672;BME280;5892;43.412;24.612;2022-07-04T01:50:45;99974.03;;;23.18;91.45
11672;BME280;5892;43.412;24.612;2022-07-04T01:53:14;99993.56;;;23.33;91.23
11672;BME280;5892;43.412;24.612;2022-07-04T01:55:43;100004.75;;;23.26;91.78
11672;BME280;5892;43.412;24.612;2022-07-04T01:58:09;99970.84;;;23.09;91.44
11672;BME280;5892;43.412;24.612;2022-07-04T02:00:37;100008.34;;;23.19;92.00
11672;BME280;5892;43.412;24.612;2022-07-04T02:03:21;100009.16;;;23.27;92.33
11672;BME280;5892;43.412;24.612;2022-07-04T02:05:48;99979.28;;;23.02;93.44
11672;BME280;5892;43.412;24.612;2022-07-04T02:08:15;99994.78;;;23.21;92.84
11672;BME280;5892;43.412;24.612;2022-07-04T02:10:44;100005.16;;;23.20;93.41
11672;BME280;5892;43.412;24.612;2022-07-04T02:13:13;100013.13;;;23.36;92.69
11672;BME280;5892;43.412;24.612;2022-07-04T02:15:41;100013.94;;;23.33;92.88
11672;BME280;5892;43.412;24.612;2022-07-04T02:18:09;100010.75;;;23.20;93.39
11672;BME280;5892;43.412;24.612;2022-07-04T02:20:37;100011.94;;;23.19;94.06
11672;BME280;5892;43.412;24.612;2022-07-04T02:23:05;100018.34;;;23.27;93.36
11672;BME280;5892;43.412;24.612;2022-07-04T02:25:32;100021.97;;;23.17;93.92
11672;BME280;5892;43.412;24.612;2022-07-04T02:28:01;100026.34;;;23.21;93.42
11672;BME280;5892;43.412;24.612;2022-07-04T02:30:28;100027.53;;;23.20;93.94
11672;BME280;5892;43.412;24.612;2022-07-04T02:32:55;100012.03;;;22.91;94.39
11672;BME280;5892;43.412;24.612;2022-07-04T02:35:23;100017.97;;;22.93;94.98
11672;BME280;5892;43.412;24.612;2022-07-04T02:37:49;100024.38;;;22.90;95.51
11672;BME280;5892;43.412;24.612;2022-07-04T02:40:16;100013.22;;;22.76;95.80
11672;BME280;5892;43.412;24.612;2022-07-04T02:42:43;100030.75;;;22.66;96.92
11672;BME280;5892;43.412;24.612;2022-07-04T02:45:11;100029.16;;;22.65;97.34
11672;BME280;5892;43.412;24.612;2022-07-04T02:47:38;100036.38;;;22.73;96.60
11672;BME280;5892;43.412;24.612;2022-07-04T02:50:06;100021.63;;;22.76;96.60
11672;BME280;5892;43.412;24.612;2022-07-04T02:52:34;100031.56;;;22.73;96.59
11672;BME280;5892;43.412;24.612;2022-07-04T02:55:01;100027.97;;;22.59;97.47
11672;BME280;5892;43.412;24.612;2022-07-04T02:57:29;100029.97;;;22.55;98.07
11672;BME280;5892;43.412;24.612;2022-07-04T02:59:57;100029.94;;;22.62;97.39
11672;BME280;5892;43.412;24.612;2022-07-04T03:02:29;100026.75;;;22.67;97.25
11672;BME280;5892;43.412;24.612;2022-07-04T03:04:56;100026.75;;;22.60;97.49
11672;BME280;5892;43.412;24.612;2022-07-04T03:07:23;100029.16;;;22.44;98.52
11672;BME280;5892;43.412;24.612;2022-07-04T03:09:50;100011.16;;;22.23;99.46
11672;BME280;5892;43.412;24.612;2022-07-04T03:12:17;100016.00;;;22.44;99.05
11672;BME280;5892;43.412;24.612;2022-07-04T03:14:44;100032.34;;;22.60;98.91
11672;BME280;5892;43.412;24.612;2022-07-04T03:17:11;100022.78;;;22.64;98.55
11672;BME280;5892;43.412;24.612;2022-07-04T03:19:39;99997.63;;;22.47;98.48
11672;BME280;5892;43.412;24.612;2022-07-04T03:22:08;100030.00;;;22.76;98.27
11672;BME280;5892;43.412;24.612;2022-07-04T03:24:35;100033.16;;;22.99;96.66
11672;BME280;5892;43.412;24.612;2022-07-04T03:27:02;100020.38;;;22.98;95.87
11672;BME280;5892;43.412;24.612;2022-07-04T03:29:29;100031.16;;;23.10;95.57
11672;BME280;5892;43.412;24.612;2022-07-04T03:31:56;100013.09;;;23.40;93.30
11672;BME280;5892;43.412;24.612;2022-07-04T03:34:26;100033.22;;;24.11;89.60
11672;BME280;5892;43.412;24.612;2022-07-04T03:36:55;100026.88;;;24.62;86.14
11672;BME280;5892;43.412;24.612;2022-07-04T03:39:22;100035.19;;;25.21;81.91
11672;BME280;5892;43.412;24.612;2022-07-04T03:41:48;100032.69;;;25.67;78.84
11672;BME280;5892;43.412;24.612;2022-07-04T03:44:15;100040.84;;;25.89;76.95
11672;BME280;5892;43.412;24.612;2022-07-04T03:46:42;100037.06;;;26.02;75.87
11672;BME280;5892;43.412;24.612;2022-07-04T03:49:09;100039.22;;;26.48;73.63
11672;BME280;5892;43.412;24.612;2022-07-04T03:51:36;100028.13;;;26.91;70.50
11672;BME280;5892;43.412;24.612;2022-07-04T03:54:05;100040.81;;;27.42;68.80
11672;BME280;5892;43.412;24.612;2022-07-04T03:56:32;100050.72;;;27.74;66.76
11672;BME280;5892;43.412;24.612;2022-07-04T03:58:59;100051.84;;;27.96;65.31
11672;BME280;5892;43.412;24.612;2022-07-04T04:01:27;100028.16;;;28.13;64.00
11672;BME280;5892;43.412;24.612;2022-07-04T04:03:56;100046.78;;;28.43;63.13
11672;BME280;5892;43.412;24.612;2022-07-04T04:06:40;100047.78;;;28.69;62.01
11672;BME280;5892;43.412;24.612;2022-07-04T04:09:10;100054.16;;;28.37;62.75
11672;BME280;5892;43.412;24.612;2022-07-04T04:11:43;100053.88;;;27.76;65.29
11672;BME280;5892;43.412;24.612;2022-07-04T04:14:12;100045.22;;;27.44;66.65
11672;BME280;5892;43.412;24.612;2022-07-04T04:17:09;100052.44;;;27.25;68.06
11672;BME280;5892;43.412;24.612;2022-07-04T04:19:36;100063.88;;;27.14;68.47
11672;BME280;5892;43.412;24.612;2022-07-04T04:22:03;100061.06;;;26.91;69.31
11672;BME280;5892;43.412;24.612;2022-07-04T04:24:32;100059.47;;;27.13;68.93
11672;BME280;5892;43.412;24.612;2022-07-04T04:26:58;100068.25;;;27.81;66.36
11672;BME280;5892;43.412;24.612;2022-07-04T04:29:25;100061.03;;;28.20;64.65
11672;BME280;5892;43.412;24.612;2022-07-04T04:31:52;100067.56;;;28.33;64.08
11672;BME280;5892;43.412;24.612;2022-07-04T04:34:19;100075.63;;;28.51;63.90
11672;BME280;5892;43.412;24.612;2022-07-04T04:36:47;100077.09;;;28.55;63.51
11672;BME280;5892;43.412;24.612;2022-07-04T04:39:14;100073.13;;;28.89;61.79
11672;BME280;5892;43.412;24.612;2022-07-04T04:41:44;100082.06;;;29.48;59.59
11672;BME280;5892;43.412;24.612;2022-07-04T04:44:11;100078.09;;;29.75;58.35
11672;BME280;5892;43.412;24.612;2022-07-04T04:46:38;100083.00;;;29.87;57.87
11672;BME280;5892;43.412;24.612;2022-07-04T04:49:05;100083.44;;;30.14;56.87
11672;BME280;5892;43.412;24.612;2022-07-04T04:51:33;100080.38;;;30.21;56.03
11672;BME280;5892;43.412;24.612;2022-07-04T04:54:00;100086.19;;;30.43;55.73
11672;BME280;5892;43.412;24.612;2022-07-04T04:56:27;100094.22;;;30.57;55.81
11672;BME280;5892;43.412;24.612;2022-07-04T04:58:56;100087.22;;;30.49;55.88
11672;BME280;5892;43.412;24.612;2022-07-04T05:01:24;100069.44;;;30.23;56.69
11672;BME280;5892;43.412;24.612;2022-07-04T05:03:51;100100.63;;;30.33;56.71
11672;BME280;5892;43.412;24.612;2022-07-04T05:06:27;100068.19;;;30.37;56.10
11672;BME280;5892;43.412;24.612;2022-07-04T05:08:55;100092.78;;;30.65;55.31
11672;BME280;5892;43.412;24.612;2022-07-04T05:11:22;100109.50;;;30.85;55.03
11672;BME280;5892;43.412;24.612;2022-07-04T05:13:49;100109.63;;;30.82;54.79
11672;BME280;5892;43.412;24.612;2022-07-04T05:16:17;100099.31;;;30.62;56.11
11672;BME280;5892;43.412;24.612;2022-07-04T05:18:44;100092.88;;;30.49;56.68
11672;BME280;5892;43.412;24.612;2022-07-04T05:21:11;100081.09;;;30.38;57.13
11672;BME280;5892;43.412;24.612;2022-07-04T05:23:38;100100.44;;;30.52;57.42
11672;BME280;5892;43.412;24.612;2022-07-04T05:26:05;100112.69;;;30.75;56.16
11672;BME280;5892;43.412;24.612;2022-07-04T05:28:32;100094.00;;;30.64;57.03
11672;BME280;5892;43.412;24.612;2022-07-04T05:31:00;100089.13;;;30.52;57.10
11672;BME280;5892;43.412;24.612;2022-07-04T05:33:29;100101.47;;;30.84;56.65
11672;BME280;5892;43.412;24.612;2022-07-04T05:35:56;100089.03;;;30.68;57.14
11672;BME280;5892;43.412;24.612;2022-07-04T05:38:23;100095.94;;;30.80;56.04
11672;BME280;5892;43.412;24.612;2022-07-04T05:40:51;100089.94;;;31.03;56.06
11672;BME280;5892;43.412;24.612;2022-07-04T05:43:18;100097.78;;;31.34;54.30
11672;BME280;5892;43.412;24.612;2022-07-04T05:45:46;100089.38;;;31.43;54.34
11672;BME280;5892;43.412;24.612;2022-07-04T05:48:15;100085.16;;;31.47;53.56
11672;BME280;5892;43.412;24.612;2022-07-04T05:50:43;100088.84;;;31.70;52.38
11672;BME280;5892;43.412;24.612;2022-07-04T05:53:10;100096.63;;;32.00;51.37
11672;BME280;5892;43.412;24.612;2022-07-04T05:55:37;100079.88;;;32.15;50.91
11672;BME280;5892;43.412;24.612;2022-07-04T05:58:04;100109.97;;;32.65;49.55
11672;BME280;5892;43.412;24.612;2022-07-04T06:00:33;100108.56;;;32.69;48.85
11672;BME280;5892;43.412;24.612;2022-07-04T06:03:00;100112.84;;;32.74;45.86
11672;BME280;5892;43.412;24.612;2022-07-04T06:05:27;100102.69;;;32.64;44.77
11672;BME280;5892;43.412;24.612;2022-07-04T06:07:56;100116.38;;;32.96;43.49
11672;BME280;5892;43.412;24.612;2022-07-04T06:10:23;100111.28;;;33.22;42.38
11672;BME280;5892;43.412;24.612;2022-07-04T06:12:50;100105.59;;;33.31;42.09
11672;BME280;5892;43.412;24.612;2022-07-04T06:15:19;100108.94;;;33.48;41.89
11672;BME280;5892;43.412;24.612;2022-07-04T06:17:47;100102.47;;;33.56;41.62
11672;BME280;5892;43.412;24.612;2022-07-04T06:20:14;100106.56;;;33.55;40.77
11672;BME280;5892;43.412;24.612;2022-07-04T06:22:44;100087.81;;;33.85;40.92
11672;BME280;5892;43.412;24.612;2022-07-04T06:25:14;100089.66;;;34.07;41.22
11672;BME280;5892;43.412;24.612;2022-07-04T06:27:42;100093.78;;;33.96;41.63
11672;BME280;5892;43.412;24.612;2022-07-04T06:30:12;100090.97;;;33.96;40.49
11672;BME280;5892;43.412;24.612;2022-07-04T06:32:43;100095.38;;;33.88;40.78
11672;BME280;5892;43.412;24.612;2022-07-04T06:35:13;100096.41;;;34.36;39.39
11672;BME280;5892;43.412;24.612;2022-07-04T06:37:58;100088.34;;;34.35;39.92
11672;BME280;5892;43.412;24.612;2022-07-04T06:40:26;100089.09;;;34.44;40.46
11672;BME280;5892;43.412;24.612;2022-07-04T06:42:53;100088.72;;;34.61;38.47
11672;BME280;5892;43.412;24.612;2022-07-04T06:45:20;100076.31;;;34.49;38.11
11672;BME280;5892;43.412;24.612;2022-07-04T06:47:47;100100.34;;;34.81;37.92
11672;BME280;5892;43.412;24.612;2022-07-04T06:50:14;100082.75;;;34.92;37.68
11672;BME280;5892;43.412;24.612;2022-07-04T06:52:41;100094.88;;;35.01;38.25
11672;BME280;5892;43.412;24.612;2022-07-04T06:55:08;100083.75;;;35.36;37.25
11672;BME280;5892;43.412;24.612;2022-07-04T06:57:37;100084.59;;;35.51;36.89
11672;BME280;5892;43.412;24.612;2022-07-04T07:00:06;100087.66;;;35.62;37.21
11672;BME280;5892;43.412;24.612;2022-07-04T07:02:34;100021.53;;;35.20;37.40
11672;BME280;5892;43.412;24.612;2022-07-04T07:05:01;100078.81;;;35.13;37.61
11672;BME280;5892;43.412;24.612;2022-07-04T07:07:28;100068.59;;;35.30;37.62
11672;BME280;5892;43.412;24.612;2022-07-04T07:09:55;100068.91;;;35.32;36.72
11672;BME280;5892;43.412;24.612;2022-07-04T07:12:22;100071.66;;;34.94;37.76
11672;BME280;5892;43.412;24.612;2022-07-04T07:14:51;100075.91;;;34.74;38.73
11672;BME280;5892;43.412;24.612;2022-07-04T07:17:18;100066.75;;;34.94;38.04
11672;BME280;5892;43.412;24.612;2022-07-04T07:19:45;100069.25;;;35.01;37.82
11672;BME280;5892;43.412;24.612;2022-07-04T07:22:13;100069.88;;;34.72;38.51
11672;BME280;5892;43.412;24.612;2022-07-04T07:24:40;100067.72;;;34.58;39.11
11672;BME280;5892;43.412;24.612;2022-07-04T07:27:07;100077.16;;;34.73;38.97
11672;BME280;5892;43.412;24.612;2022-07-04T07:29:34;100067.16;;;35.02;38.85
11672;BME280;5892;43.412;24.612;2022-07-04T07:32:03;100063.25;;;34.99;38.13
11672;BME280;5892;43.412;24.612;2022-07-04T07:34:30;100032.59;;;34.94;38.05
11672;BME280;5892;43.412;24.612;2022-07-04T07:36:57;100041.00;;;35.12;37.30
11672;BME280;5892;43.412;24.612;2022-07-04T07:39:24;100054.72;;;35.23;38.15
11672;BME280;5892;43.412;24.612;2022-07-04T07:41:51;100055.47;;;35.33;38.01
11672;BME280;5892;43.412;24.612;2022-07-04T07:44:18;100050.06;;;35.49;37.51
11672;BME280;5892;43.412;24.612;2022-07-04T07:46:45;100051.13;;;35.76;37.09
11672;BME280;5892;43.412;24.612;2022-07-04T07:49:13;100043.38;;;35.76;37.39
11672;BME280;5892;43.412;24.612;2022-07-04T07:51:40;100027.09;;;35.53;37.44
11672;BME280;5892;43.412;24.612;2022-07-04T07:54:08;100043.31;;;35.61;36.39
11672;BME280;5892;43.412;24.612;2022-07-04T07:56:36;100036.97;;;35.66;35.78
11672;BME280;5892;43.412;24.612;2022-07-04T07:59:03;100041.50;;;35.88;35.74
11672;BME280;5892;43.412;24.612;2022-07-04T08:01:30;100039.66;;;35.99;35.66
11672;BME280;5892;43.412;24.612;2022-07-04T08:03:56;100038.75;;;36.08;32.78
11672;BME280;5892;43.412;24.612;2022-07-04T08:06:42;100040.91;;;36.13;32.68
11672;BME280;5892;43.412;24.612;2022-07-04T08:09:09;100041.59;;;36.08;30.44
11672;BME280;5892;43.412;24.612;2022-07-04T08:11:36;100026.28;;;36.05;30.73
11672;BME280;5892;43.412;24.612;2022-07-04T08:14:03;100038.16;;;36.04;30.85
11672;BME280;5892;43.412;24.612;2022-07-04T08:16:32;100033.63;;;35.97;30.36
11672;BME280;5892;43.412;24.612;2022-07-04T08:19:00;100040.44;;;36.00;30.78
11672;BME280;5892;43.412;24.612;2022-07-04T08:21:27;100036.44;;;36.21;30.06
11672;BME280;5892;43.412;24.612;2022-07-04T08:23:55;100039.69;;;36.49;28.19
11672;BME280;5892;43.412;24.612;2022-07-04T08:26:22;100039.75;;;36.20;27.50
11672;BME280;5892;43.412;24.612;2022-07-04T08:28:49;100032.16;;;36.02;26.94
11672;BME280;5892;43.412;24.612;2022-07-04T08:31:23;100040.75;;;36.17;27.47
11672;BME280;5892;43.412;24.612;2022-07-04T08:33:50;100041.91;;;36.10;26.52
11672;BME280;5892;43.412;24.612;2022-07-04T08:36:18;100038.75;;;35.93;24.52
11672;BME280;5892;43.412;24.612;2022-07-04T08:38:45;100045.06;;;35.83;24.11
11672;BME280;5892;43.412;24.612;2022-07-04T08:41:15;100047.00;;;35.91;24.99
11672;BME280;5892;43.412;24.612;2022-07-04T08:43:42;100033.16;;;35.99;24.57
11672;BME280;5892;43.412;24.612;2022-07-04T08:46:15;100036.91;;;36.05;25.00
11672;BME280;5892;43.412;24.612;2022-07-04T08:48:50;100039.19;;;36.16;25.50
11672;BME280;5892;43.412;24.612;2022-07-04T08:51:23;100028.06;;;36.32;25.17
11672;BME280;5892;43.412;24.612;2022-07-04T08:53:55;100034.59;;;36.68;24.69
11672;BME280;5892;43.412;24.612;2022-07-04T08:56:24;100029.59;;;36.63;24.54
11672;BME280;5892;43.412;24.612;2022-07-04T08:59:09;100029.47;;;36.57;24.96
11672;BME280;5892;43.412;24.612;2022-07-04T09:01:39;100028.09;;;36.67;24.94
11672;BME280;5892;43.412;24.612;2022-07-04T09:04:07;100025.50;;;36.69;25.10
11672;BME280;5892;43.412;24.612;2022-07-04T09:06:36;100026.03;;;36.88;24.23
11672;BME280;5892;43.412;24.612;2022-07-04T09:09:04;100028.25;;;36.78;24.19
11672;BME280;5892;43.412;24.612;2022-07-04T09:11:34;100028.31;;;36.64;24.83
11672;BME280;5892;43.412;24.612;2022-07-04T09:14:01;100030.44;;;36.69;24.09
11672;BME280;5892;43.412;24.612;2022-07-04T09:16:30;100021.78;;;36.48;24.64
11672;BME280;5892;43.412;24.612;2022-07-04T09:18:59;100015.19;;;36.57;24.05
11672;BME280;5892;43.412;24.612;2022-07-04T09:21:43;100028.72;;;36.13;23.78
11672;BME280;5892;43.412;24.612;2022-07-04T09:24:10;100024.22;;;36.06;24.13
11672;BME280;5892;43.412;24.612;2022-07-04T09:26:44;100013.78;;;36.32;23.71
11672;BME280;5892;43.412;24.612;2022-07-04T09:29:13;100006.06;;;36.53;23.49
11672;BME280;5892;43.412;24.612;2022-07-04T09:31:39;100004.47;;;36.52;23.78
11672;BME280;5892;43.412;24.612;2022-07-04T09:34:07;100021.81;;;36.34;23.18
11672;BME280;5892;43.412;24.612;2022-07-04T09:36:39;100025.06;;;36.41;23.73
11672;BME280;5892;43.412;24.612;2022-07-04T09:39:18;100020.34;;;36.38;23.83
11672;BME280;5892;43.412;24.612;2022-07-04T09:41:52;100022.06;;;36.16;23.75
11672;BME280;5892;43.412;24.612;2022-07-04T09:44:19;100019.50;;;36.32;24.41
11672;BME280;5892;43.412;24.612;2022-07-04T09:46:47;100012.72;;;36.00;24.60
11672;BME280;5892;43.412;24.612;2022-07-04T09:49:14;100029.72;;;36.24;24.59
11672;BME280;5892;43.412;24.612;2022-07-04T09:51:42;100017.66;;;36.49;24.17
11672;BME280;5892;43.412;24.612;2022-07-04T09:54:17;100014.47;;;35.98;24.40
11672;BME280;5892;43.412;24.612;2022-07-04T09:56:46;100014.94;;;35.96;24.52
11672;BME280;5892;43.412;24.612;2022-07-04T09:59:20;100009.06;;;36.00;25.08
11672;BME280;5892;43.412;24.612;2022-07-04T10:01:47;100016.72;;;36.23;24.65
11672;BME280;5892;43.412;24.612;2022-07-04T10:04:14;100012.59;;;36.24;24.13
11672;BME280;5892;43.412;24.612;2022-07-04T10:06:44;100013.00;;;36.32;23.64
11672;BME280;5892;43.412;24.612;2022-07-04T10:09:14;100005.88;;;36.42;24.31
11672;BME280;5892;43.412;24.612;2022-07-04T10:11:43;100004.22;;;36.35;23.97
11672;BME280;5892;43.412;24.612;2022-07-04T10:14:14;100008.47;;;36.60;24.52
11672;BME280;5892;43.412;24.612;2022-07-04T10:16:43;99989.69;;;36.68;24.49
11672;BME280;5892;43.412;24.612;2022-07-04T10:19:12;100005.47;;;36.64;24.45
11672;BME280;5892;43.412;24.612;2022-07-04T10:21:39;99998.63;;;36.61;24.72
11672;BME280;5892;43.412;24.612;2022-07-04T10:24:07;99993.91;;;36.73;23.93
11672;BME280;5892;43.412;24.612;2022-07-04T10:26:43;99997.69;;;36.84;23.77
11672;BME280;5892;43.412;24.612;2022-07-04T10:29:14;99994.25;;;36.45;24.51
11672;BME280;5892;43.412;24.612;2022-07-04T10:31:46;99986.63;;;36.07;24.96
11672;BME280;5892;43.412;24.612;2022-07-04T10:34:13;99981.63;;;35.88;25.32
11672;BME280;5892;43.412;24.612;2022-07-04T10:36:51;99988.19;;;36.08;24.91
11672;BME280;5892;43.412;24.612;2022-07-04T10:39:22;99985.06;;;35.92;25.37
11672;BME280;5892;43.412;24.612;2022-07-04T10:41:57;99990.56;;;35.81;25.75
11672;BME280;5892;43.412;24.612;2022-07-04T10:44:25;99975.19;;;35.49;26.32
11672;BME280;5892;43.412;24.612;2022-07-04T10:46:54;99975.34;;;35.69;25.31
11672;BME280;5892;43.412;24.612;2022-07-04T10:49:25;99962.75;;;35.90;24.92
11672;BME280;5892;43.412;24.612;2022-07-04T10:51:54;99971.69;;;36.27;24.55
11672;BME280;5892;43.412;24.612;2022-07-04T10:54:27;99970.22;;;36.17;25.00
11672;BME280;5892;43.412;24.612;2022-07-04T10:56:57;99968.19;;;36.38;25.26
11672;BME280;5892;43.412;24.612;2022-07-04T10:59:25;99966.66;;;36.07;25.21
11672;BME280;5892;43.412;24.612;2022-07-04T11:02:25;99954.75;;;35.65;24.87
11672;BME280;5892;43.412;24.612;2022-07-04T11:05:01;99951.13;;;35.50;25.91
11672;BME280;5892;43.412;24.612;2022-07-04T11:07:59;99954.75;;;35.50;25.91
11672;BME280;5892;43.412;24.612;2022-07-04T11:10:30;99951.28;;;34.93;26.57
11672;BME280;5892;43.412;24.612;2022-07-04T11:13:15;99949.09;;;35.12;26.26
11672;BME280;5892;43.412;24.612;2022-07-04T11:16:02;99948.38;;;35.41;26.35
11672;BME280;5892;43.412;24.612;2022-07-04T11:18:38;99945.53;;;35.41;26.50
11672;BME280;5892;43.412;24.612;2022-07-04T11:21:24;99939.41;;;35.33;26.69
11672;BME280;5892;43.412;24.612;2022-07-04T11:23:52;99934.13;;;35.26;26.58
11672;BME280;5892;43.412;24.612;2022-07-04T11:26:22;99931.38;;;34.93;26.55
11672;BME280;5892;43.412;24.612;2022-07-04T11:28:50;99927.06;;;35.36;26.75
11672;BME280;5892;43.412;24.612;2022-07-04T11:31:17;99924.97;;;35.22;26.83
11672;BME280;5892;43.412;24.612;2022-07-04T11:33:46;99906.78;;;35.19;27.28
11672;BME280;5892;43.412;24.612;2022-07-04T11:36:15;99915.13;;;35.23;26.39
11672;BME280;5892;43.412;24.612;2022-07-04T11:38:49;99926.00;;;35.48;27.14
11672;BME280;5892;43.412;24.612;2022-07-04T11:41:17;99921.34;;;35.65;26.03
11672;BME280;5892;43.412;24.612;2022-07-04T11:44:06;99912.22;;;35.76;26.11
11672;BME280;5892;43.412;24.612;2022-07-04T11:47:03;99916.53;;;36.01;25.93
11672;BME280;5892;43.412;24.612;2022-07-04T11:49:33;99918.97;;;36.08;25.38
11672;BME280;5892;43.412;24.612;2022-07-04T11:52:00;99908.38;;;35.94;25.61
11672;BME280;5892;43.412;24.612;2022-07-04T11:54:27;99911.94;;;35.89;25.40
11672;BME280;5892;43.412;24.612;2022-07-04T11:57:09;99891.69;;;35.72;25.13
11672;BME280;5892;43.412;24.612;2022-07-04T11:59:36;99900.47;;;35.68;25.79
11672;BME280;5892;43.412;24.612;2022-07-04T12:02:14;99910.38;;;35.58;25.41
11672;BME280;5892;43.412;24.612;2022-07-04T12:04:43;99901.81;;;35.58;25.10
11672;BME280;5892;43.412;24.612;2022-07-04T12:07:14;99900.59;;;35.65;25.14
11672;BME280;5892;43.412;24.612;2022-07-04T12:09:42;99900.81;;;35.47;25.38
11672;BME280;5892;43.412;24.612;2022-07-04T12:12:10;99894.66;;;35.48;25.88
11672;BME280;5892;43.412;24.612;2022-07-04T12:14:37;99880.78;;;35.71;25.83
11672;BME280;5892;43.412;24.612;2022-07-04T12:17:16;99882.31;;;35.86;25.40
11672;BME280;5892;43.412;24.612;2022-07-04T12:19:52;99890.25;;;35.97;25.43
11672;BME280;5892;43.412;24.612;2022-07-04T12:22:31;99891.00;;;36.12;24.73
11672;BME280;5892;43.412;24.612;2022-07-04T12:24:58;99882.16;;;36.25;24.90
11672;BME280;5892;43.412;24.612;2022-07-04T12:27:26;99876.44;;;36.25;25.05
11672;BME280;5892;43.412;24.612;2022-07-04T12:29:57;99866.88;;;35.93;25.25
11672;BME280;5892;43.412;24.612;2022-07-04T12:32:24;99882.84;;;35.85;25.53
11672;BME280;5892;43.412;24.612;2022-07-04T12:35:31;99875.91;;;35.91;25.69
11672;BME280;5892;43.412;24.612;2022-07-04T12:38:06;99872.00;;;35.89;25.28
11672;BME280;5892;43.412;24.612;2022-07-04T12:40:35;99872.25;;;36.20;25.48
11672;BME280;5892;43.412;24.612;2022-07-04T12:43:03;99867.41;;;36.11;25.29
11672;BME280;5892;43.412;24.612;2022-07-04T12:45:44;99857.44;;;35.87;25.75
11672;BME280;5892;43.412;24.612;2022-07-04T12:48:25;99865.47;;;35.53;25.92
11672;BME280;5892;43.412;24.612;2022-07-04T12:50:55;99854.34;;;35.55;26.27
11672;BME280;5892;43.412;24.612;2022-07-04T12:53:22;99858.28;;;35.58;26.14
11672;BME280;5892;43.412;24.612;2022-07-04T12:55:49;99864.16;;;35.54;25.68
11672;BME280;5892;43.412;24.612;2022-07-04T12:58:16;99855.91;;;35.56;25.62
11672;BME280;5892;43.412;24.612;2022-07-04T13:00:43;99848.44;;;35.59;25.95
11672;BME280;5892;43.412;24.612;2022-07-04T13:03:11;99848.63;;;35.70;25.96
11672;BME280;5892;43.412;24.612;2022-07-04T13:05:38;99862.41;;;35.72;25.66